sensor_id;sensor_type;location;lat;lon;timestamp;pressure;altitude;pressure_sealevel;temperature;humidity
52975;BME280;38839;45.186;5.720;2022-08-03T07:58:09;99077.72;;;31.82;30.18
52975;BME280;38839;45.186;5.720;2022-08-03T08:00:36;99080.09;;;31.46;30.87
52975;BME280;38839;45.186;5.720;2022-08-03T08:03:03;99076.97;;;31.41;31.04
52975;BME280;38839;45.186;5.720;2022-08-03T08:05:29;99080.31;;;31.23;31.16
52975;BME280;38839;45.186;5.720;2022-08-03T08:07:55;99071.75;;;31.49;30.44
52975;BME280;38839;45.186;5.720;2022-08-03T08:10:20;99069.06;;;31.88;30.17
52975;BME280;38839;45.186;5.720;2022-08-03T08:12:46;99068.09;;;31.79;29.99
52975;BME280;38839;45.186;5.720;2022-08-03T08:15:11;99071.78;;;31.59;30.69
52975;BME280;38839;45.186;5.720;2022-08-03T08:17:45;99070.91;;;31.87;30.03
52975;BME280;38839;45.186;5.720;2022-08-03T08:20:15;99071.88;;;32.16;29.82
52975;BME280;38839;45.186;5.720;2022-08-03T08:22:41;99066.94;;;31.62;30.45
52975;BME280;38839;45.186;5.720;2022-08-03T08:25:06;99066.22;;;31.60;30.46
52975;BME280;38839;45.186;5.720;2022-08-03T08:27:32;99058.72;;;31.83;29.62
52975;BME280;38839;45.186;5.720;2022-08-03T08:29:57;99062.41;;;31.63;29.17
52975;BME280;38839;45.186;5.720;2022-08-03T08:32:23;99060.41;;;31.65;30.01
52975;BME280;38839;45.186;5.720;2022-08-03T08:34:48;99058.56;;;32.04;29.45
52975;BME280;38839;45.186;5.720;2022-08-03T08:37:13;99056.63;;;32.44;29.02
52975;BME280;38839;45.186;5.720;2022-08-03T08:39:39;99052.16;;;32.72;28.33
52975;BME280;38839;45.186;5.720;2022-08-03T08:42:04;99050.66;;;32.87;28.76
52975;BME280;38839;45.186;5.720;2022-08-03T08:44:29;99048.91;;;33.24;28.04
52975;BME280;38839;45.186;5.720;2022-08-03T08:46:56;99050.09;;;33.57;27.55
52975;BME280;38839;45.186;5.720;2022-08-03T08:49:26;99052.03;;;33.83;26.93
52975;BME280;38839;45.186;5.720;2022-08-03T08:51:53;99050.91;;;34.12;26.26
52975;BME280;38839;45.186;5.720;2022-08-03T08:54:20;99039.69;;;33.80;26.71
52975;BME280;38839;45.186;5.720;2022-08-03T08:56:48;99046.47;;;33.48;27.36
52975;BME280;38839;45.186;5.720;2022-08-03T08:59:15;99035.53;;;33.22;27.34
52975;BME280;38839;45.186;5.720;2022-08-03T09:01:41;99037.16;;;33.15;27.82
52975;BME280;38839;45.186;5.720;2022-08-03T09:04:06;99045.00;;;33.54;27.44
52975;BME280;38839;45.186;5.720;2022-08-03T09:06:33;99031.16;;;33.75;27.18
52975;BME280;38839;45.186;5.720;2022-08-03T09:08:59;99037.97;;;33.61;27.04
52975;BME280;38839;45.186;5.720;2022-08-03T09:11:24;99041.09;;;33.66;27.04
52975;BME280;38839;45.186;5.720;2022-08-03T09:13:50;99032.13;;;34.10;26.24
52975;BME280;38839;45.186;5.720;2022-08-03T09:16:16;99037.69;;;34.08;26.07
52975;BME280;38839;45.186;5.720;2022-08-03T09:18:44;99031.91;;;34.21;26.00
52975;BME280;38839;45.186;5.720;2022-08-03T09:21:27;99032.16;;;34.36;25.92
52975;BME280;38839;45.186;5.720;2022-08-03T09:23:57;99029.34;;;34.46;26.33
52975;BME280;38839;45.186;5.720;2022-08-03T09:26:28;99018.00;;;34.51;25.70
52975;BME280;38839;45.186;5.720;2022-08-03T09:29:01;99027.88;;;34.07;26.28
52975;BME280;38839;45.186;5.720;2022-08-03T09:31:34;99024.41;;;33.97;26.38
52975;BME280;38839;45.186;5.720;2022-08-03T09:34:05;99014.84;;;33.49;27.53
52975;BME280;38839;45.186;5.720;2022-08-03T09:39:03;99009.31;;;33.05;27.68
52975;BME280;38839;45.186;5.720;2022-08-03T09:41:31;99014.16;;;33.01;27.47
52975;BME280;38839;45.186;5.720;2022-08-03T09:43:56;99010.34;;;32.76;27.77
52975;BME280;38839;45.186;5.720;2022-08-03T09:46:22;99009.69;;;32.64;28.14
52975;BME280;38839;45.186;5.720;2022-08-03T09:48:47;99011.84;;;32.88;28.16
52975;BME280;38839;45.186;5.720;2022-08-03T09:51:12;99010.66;;;32.91;28.44
52975;BME280;38839;45.186;5.720;2022-08-03T09:53:46;99006.88;;;32.56;28.09
52975;BME280;38839;45.186;5.720;2022-08-03T09:56:12;99007.47;;;32.40;28.70
52975;BME280;38839;45.186;5.720;2022-08-03T09:58:46;99007.44;;;32.50;29.34
52975;BME280;38839;45.186;5.720;2022-08-03T10:01:12;99000.28;;;32.68;28.84
52975;BME280;38839;45.186;5.720;2022-08-03T10:03:39;99002.59;;;32.63;28.77
52975;BME280;38839;45.186;5.720;2022-08-03T10:06:15;98994.16;;;32.29;29.02
52975;BME280;38839;45.186;5.720;2022-08-03T10:08:41;98993.53;;;32.45;28.98
52975;BME280;38839;45.186;5.720;2022-08-03T10:11:06;98987.00;;;32.47;28.87
52975;BME280;38839;45.186;5.720;2022-08-03T10:13:32;98985.81;;;32.50;28.45
52975;BME280;38839;45.186;5.720;2022-08-03T10:15:58;98983.13;;;31.93;29.33
52975;BME280;38839;45.186;5.720;2022-08-03T10:18:23;98976.25;;;32.28;28.82
52975;BME280;38839;45.186;5.720;2022-08-03T10:20:51;98972.69;;;32.37;29.49
52975;BME280;38839;45.186;5.720;2022-08-03T10:23:18;98967.91;;;32.59;28.96
52975;BME280;38839;45.186;5.720;2022-08-03T10:25:53;98970.59;;;32.59;29.07
52975;BME280;38839;45.186;5.720;2022-08-03T10:28:22;98960.50;;;32.61;28.79
52975;BME280;38839;45.186;5.720;2022-08-03T10:30:50;98958.44;;;32.73;29.02
52975;BME280;38839;45.186;5.720;2022-08-03T10:33:21;98948.16;;;32.48;28.38
52975;BME280;38839;45.186;5.720;2022-08-03T10:35:52;98950.53;;;32.34;28.88
52975;BME280;38839;45.186;5.720;2022-08-03T10:38:22;98942.38;;;32.43;28.28
52975;BME280;38839;45.186;5.720;2022-08-03T10:40:52;98937.88;;;32.34;28.31
52975;BME280;38839;45.186;5.720;2022-08-03T10:43:44;98940.63;;;32.52;27.02
52975;BME280;38839;45.186;5.720;2022-08-03T10:46:14;98937.53;;;32.47;26.98
52975;BME280;38839;45.186;5.720;2022-08-03T10:48:43;98931.59;;;32.43;26.98
52975;BME280;38839;45.186;5.720;2022-08-03T10:51:09;98934.38;;;32.61;27.39
52975;BME280;38839;45.186;5.720;2022-08-03T10:53:39;98932.59;;;32.70;26.88
52975;BME280;38839;45.186;5.720;2022-08-03T10:59:17;98916.31;;;32.52;27.12
52975;BME280;38839;45.186;5.720;2022-08-03T11:04:16;98913.38;;;32.45;26.97
52975;BME280;38839;45.186;5.720;2022-08-03T11:06:43;98909.97;;;32.43;26.96
52975;BME280;38839;45.186;5.720;2022-08-03T11:11:34;98904.19;;;32.66;26.76
52975;BME280;38839;45.186;5.720;2022-08-03T11:14:06;98904.56;;;32.71;26.97
52975;BME280;38839;45.186;5.720;2022-08-03T11:16:40;98901.63;;;32.64;26.75
52975;BME280;38839;45.186;5.720;2022-08-03T11:19:11;98895.41;;;32.64;26.41
52975;BME280;38839;45.186;5.720;2022-08-03T11:29:53;98886.22;;;32.93;25.97
52975;BME280;38839;45.186;5.720;2022-08-03T11:32:58;98885.31;;;32.84;25.59
52975;BME280;38839;45.186;5.720;2022-08-03T11:35:33;98886.16;;;32.84;26.31
52975;BME280;38839;45.186;5.720;2022-08-03T11:38:09;98879.50;;;32.97;26.28
52975;BME280;38839;45.186;5.720;2022-08-03T11:40:52;98870.94;;;33.01;25.89
52975;BME280;38839;45.186;5.720;2022-08-03T11:48:38;98863.47;;;33.13;25.31
52975;BME280;38839;45.186;5.720;2022-08-03T11:51:06;98867.25;;;33.02;25.13
52975;BME280;38839;45.186;5.720;2022-08-03T11:53:32;98859.75;;;33.14;25.41
52975;BME280;38839;45.186;5.720;2022-08-03T11:56:00;98861.69;;;33.22;25.43
52975;BME280;38839;45.186;5.720;2022-08-03T11:58:26;98849.19;;;33.21;25.78
52975;BME280;38839;45.186;5.720;2022-08-03T12:00:52;98861.53;;;33.23;25.55
52975;BME280;38839;45.186;5.720;2022-08-03T12:03:31;98851.06;;;33.28;25.55
52975;BME280;38839;45.186;5.720;2022-08-03T12:05:57;98852.16;;;33.36;25.71
52975;BME280;38839;45.186;5.720;2022-08-03T12:10:51;98841.56;;;33.42;26.35
52975;BME280;38839;45.186;5.720;2022-08-03T12:13:18;98851.19;;;33.45;26.09
52975;BME280;38839;45.186;5.720;2022-08-03T12:15:50;98831.97;;;33.48;25.93
52975;BME280;38839;45.186;5.720;2022-08-03T12:18:17;98838.75;;;33.52;26.07
52975;BME280;38839;45.186;5.720;2022-08-03T12:20:44;98832.31;;;33.53;26.11
52975;BME280;38839;45.186;5.720;2022-08-03T12:23:10;98831.19;;;33.12;27.46
52975;BME280;38839;45.186;5.720;2022-08-03T12:25:37;98845.38;;;32.96;27.08
52975;BME280;38839;45.186;5.720;2022-08-03T12:28:18;98834.66;;;33.22;26.36
52975;BME280;38839;45.186;5.720;2022-08-03T12:30:46;98828.19;;;33.41;26.07
52975;BME280;38839;45.186;5.720;2022-08-03T12:33:25;98822.88;;;33.57;25.41
52975;BME280;38839;45.186;5.720;2022-08-03T12:36:08;98821.19;;;33.56;25.16
52975;BME280;38839;45.186;5.720;2022-08-03T12:38:36;98821.50;;;33.53;25.75
52975;BME280;38839;45.186;5.720;2022-08-03T12:41:09;98821.50;;;33.53;25.00
52975;BME280;38839;45.186;5.720;2022-08-03T12:43:49;98817.94;;;33.53;25.13
52975;BME280;38839;45.186;5.720;2022-08-03T12:46:17;98809.63;;;33.64;25.12
52975;BME280;38839;45.186;5.720;2022-08-03T12:51:31;98816.22;;;33.70;24.19
52975;BME280;38839;45.186;5.720;2022-08-03T12:53:57;98808.47;;;33.75;24.42
52975;BME280;38839;45.186;5.720;2022-08-03T12:56:24;98802.31;;;33.91;24.56
52975;BME280;38839;45.186;5.720;2022-08-03T12:58:49;98796.66;;;33.84;24.63
52975;BME280;38839;45.186;5.720;2022-08-03T13:01:15;98792.50;;;33.98;24.49
52975;BME280;38839;45.186;5.720;2022-08-03T13:03:46;98795.06;;;33.99;23.64
52975;BME280;38839;45.186;5.720;2022-08-03T13:06:17;98798.84;;;34.15;23.94
52975;BME280;38839;45.186;5.720;2022-08-03T13:08:43;98784.94;;;34.10;24.07
52975;BME280;38839;45.186;5.720;2022-08-03T13:11:18;98787.28;;;34.04;23.78
52975;BME280;38839;45.186;5.720;2022-08-03T13:13:44;98785.56;;;33.95;23.99
52975;BME280;38839;45.186;5.720;2022-08-03T13:16:10;98789.50;;;34.01;24.03
52975;BME280;38839;45.186;5.720;2022-08-03T13:18:35;98779.91;;;34.15;24.11
52975;BME280;38839;45.186;5.720;2022-08-03T13:21:01;98776.78;;;34.01;23.67
52975;BME280;38839;45.186;5.720;2022-08-03T13:23:26;98775.59;;;34.04;24.29
52975;BME280;38839;45.186;5.720;2022-08-03T13:25:52;98778.50;;;34.11;24.17
52975;BME280;38839;45.186;5.720;2022-08-03T13:28:18;98771.56;;;34.08;24.14
52975;BME280;38839;45.186;5.720;2022-08-03T13:30:43;98762.31;;;34.19;24.73
52975;BME280;38839;45.186;5.720;2022-08-03T13:33:08;98769.78;;;34.25;24.69
52975;BME280;38839;45.186;5.720;2022-08-03T13:35:34;98764.34;;;34.17;25.10
52975;BME280;38839;45.186;5.720;2022-08-03T13:37:59;98761.34;;;34.28;24.75
52975;BME280;38839;45.186;5.720;2022-08-03T13:40:24;98760.97;;;34.31;24.92
52975;BME280;38839;45.186;5.720;2022-08-03T13:42:50;98760.50;;;34.28;24.52
52975;BME280;38839;45.186;5.720;2022-08-03T13:45:15;98757.97;;;34.42;24.64
52975;BME280;38839;45.186;5.720;2022-08-03T13:47:41;98752.88;;;34.39;24.59
52975;BME280;38839;45.186;5.720;2022-08-03T13:50:06;98745.09;;;34.36;24.71
52975;BME280;38839;45.186;5.720;2022-08-03T13:52:33;98746.97;;;34.36;24.78
52975;BME280;38839;45.186;5.720;2022-08-03T13:55:00;98750.00;;;34.41;24.79
52975;BME280;38839;45.186;5.720;2022-08-03T13:57:25;98744.75;;;34.47;24.88
52975;BME280;38839;45.186;5.720;2022-08-03T13:59:50;98755.09;;;34.44;24.52
52975;BME280;38839;45.186;5.720;2022-08-03T14:02:16;98739.69;;;34.44;24.89
52975;BME280;38839;45.186;5.720;2022-08-03T14:04:41;98740.38;;;34.46;24.44
52975;BME280;38839;45.186;5.720;2022-08-03T14:07:07;98726.16;;;34.53;24.32
52975;BME280;38839;45.186;5.720;2022-08-03T14:09:32;98734.44;;;34.51;24.33
52975;BME280;38839;45.186;5.720;2022-08-03T14:11:59;98731.88;;;34.50;23.91
52975;BME280;38839;45.186;5.720;2022-08-03T14:14:24;98716.66;;;34.49;24.22
52975;BME280;38839;45.186;5.720;2022-08-03T14:16:49;98723.59;;;34.51;24.70
52975;BME280;38839;45.186;5.720;2022-08-03T14:19:15;98709.53;;;34.56;24.06
52975;BME280;38839;45.186;5.720;2022-08-03T14:21:40;98712.09;;;34.57;24.13
